sensor_id;sensor_type;location;lat;lon;timestamp;P1;durP1;ratioP1;P2;durP2;ratioP2
24721;SDS011;12826;52.368;5.258;2022-09-09T00:04:26;12.95;;;3.15;;
24721;SDS011;12826;52.368;5.258;2022-09-09T00:10:48;5.68;;;1.70;;
24721;SDS011;12826;52.368;5.258;2022-09-09T00:13:57;4.45;;;1.35;;
24721;SDS011;12826;52.368;5.258;2022-09-09T00:20:19;2.72;;;1.42;;
24721;SDS011;12826;52.368;5.258;2022-09-09T00:23:25;4.75;;;1.25;;
24721;SDS011;12826;52.368;5.258;2022-09-09T00:29:56;3.40;;;0.90;;
24721;SDS011;12826;52.368;5.258;2022-09-09T00:33:03;5.53;;;2.45;;
24721;SDS011;12826;52.368;5.258;2022-09-09T00:36:15;3.33;;;1.00;;
24721;SDS011;12826;52.368;5.258;2022-09-09T00:42:40;2.80;;;1.10;;
24721;SDS011;12826;52.368;5.258;2022-09-09T00:52:04;5.40;;;1.42;;
24721;SDS011;12826;52.368;5.258;2022-09-09T00:58:18;2.15;;;1.20;;
24721;SDS011;12826;52.368;5.258;2022-09-09T01:01:19;2.90;;;1.15;;
24721;SDS011;12826;52.368;5.258;2022-09-09T01:04:21;12.65;;;2.47;;
24721;SDS011;12826;52.368;5.258;2022-09-09T01:07:28;4.55;;;1.60;;
24721;SDS011;12826;52.368;5.258;2022-09-09T01:10:33;5.38;;;1.80;;
24721;SDS011;12826;52.368;5.258;2022-09-09T01:13:46;3.42;;;1.40;;
24721;SDS011;12826;52.368;5.258;2022-09-09T01:16:47;4.70;;;2.53;;
24721;SDS011;12826;52.368;5.258;2022-09-09T01:19:55;11.65;;;2.75;;
24721;SDS011;12826;52.368;5.258;2022-09-09T01:26:37;31.35;;;5.43;;
24721;SDS011;12826;52.368;5.258;2022-09-09T01:29:39;3.55;;;1.63;;
24721;SDS011;12826;52.368;5.258;2022-09-09T01:38:52;5.38;;;2.42;;
24721;SDS011;12826;52.368;5.258;2022-09-09T01:44:56;4.28;;;2.15;;
24721;SDS011;12826;52.368;5.258;2022-09-09T01:47:57;5.18;;;2.20;;
24721;SDS011;12826;52.368;5.258;2022-09-09T01:51:04;4.03;;;2.40;;
24721;SDS011;12826;52.368;5.258;2022-09-09T01:54:12;9.50;;;3.95;;
24721;SDS011;12826;52.368;5.258;2022-09-09T01:57:26;7.22;;;3.00;;
24721;SDS011;12826;52.368;5.258;2022-09-09T02:00:28;5.00;;;3.47;;
24721;SDS011;12826;52.368;5.258;2022-09-09T02:03:31;4.38;;;2.58;;
24721;SDS011;12826;52.368;5.258;2022-09-09T02:06:34;5.88;;;2.90;;
24721;SDS011;12826;52.368;5.258;2022-09-09T02:09:36;9.40;;;3.70;;
24721;SDS011;12826;52.368;5.258;2022-09-09T02:12:40;6.45;;;4.10;;
24721;SDS011;12826;52.368;5.258;2022-09-09T02:15:43;8.95;;;3.85;;
24721;SDS011;12826;52.368;5.258;2022-09-09T02:19:18;8.35;;;3.88;;
24721;SDS011;12826;52.368;5.258;2022-09-09T02:25:28;39.25;;;7.85;;
24721;SDS011;12826;52.368;5.258;2022-09-09T02:28:32;9.32;;;4.57;;
24721;SDS011;12826;52.368;5.258;2022-09-09T02:34:36;7.57;;;3.53;;
24721;SDS011;12826;52.368;5.258;2022-09-09T02:37:41;35.85;;;7.57;;
24721;SDS011;12826;52.368;5.258;2022-09-09T02:40:46;8.27;;;4.55;;
24721;SDS011;12826;52.368;5.258;2022-09-09T02:43:47;12.18;;;4.68;;
24721;SDS011;12826;52.368;5.258;2022-09-09T02:50:19;62.88;;;9.90;;
24721;SDS011;12826;52.368;5.258;2022-09-09T02:53:29;6.82;;;4.75;;
24721;SDS011;12826;52.368;5.258;2022-09-09T02:56:55;8.88;;;5.25;;
24721;SDS011;12826;52.368;5.258;2022-09-09T03:00:03;6.90;;;5.05;;
24721;SDS011;12826;52.368;5.258;2022-09-09T03:03:07;8.45;;;5.10;;
24721;SDS011;12826;52.368;5.258;2022-09-09T03:06:11;9.25;;;5.55;;
24721;SDS011;12826;52.368;5.258;2022-09-09T03:09:15;7.72;;;5.53;;
24721;SDS011;12826;52.368;5.258;2022-09-09T03:15:18;10.55;;;5.95;;
24721;SDS011;12826;52.368;5.258;2022-09-09T03:18:22;8.52;;;6.10;;
24721;SDS011;12826;52.368;5.258;2022-09-09T03:21:23;11.45;;;6.82;;
24721;SDS011;12826;52.368;5.258;2022-09-09T03:24:24;11.75;;;6.25;;
24721;SDS011;12826;52.368;5.258;2022-09-09T03:30:38;11.70;;;6.32;;
24721;SDS011;12826;52.368;5.258;2022-09-09T03:33:38;12.27;;;5.95;;
24721;SDS011;12826;52.368;5.258;2022-09-09T03:36:41;12.05;;;6.40;;
24721;SDS011;12826;52.368;5.258;2022-09-09T03:39:41;13.30;;;7.40;;
24721;SDS011;12826;52.368;5.258;2022-09-09T03:42:42;10.45;;;6.30;;
24721;SDS011;12826;52.368;5.258;2022-09-09T03:45:46;8.88;;;5.20;;
24721;SDS011;12826;52.368;5.258;2022-09-09T03:48:47;12.18;;;7.05;;
24721;SDS011;12826;52.368;5.258;2022-09-09T03:51:47;6.68;;;5.30;;
24721;SDS011;12826;52.368;5.258;2022-09-09T03:54:48;8.57;;;5.43;;
24721;SDS011;12826;52.368;5.258;2022-09-09T03:57:48;10.23;;;6.53;;
24721;SDS011;12826;52.368;5.258;2022-09-09T04:01:00;7.53;;;5.95;;
24721;SDS011;12826;52.368;5.258;2022-09-09T04:04:02;8.25;;;5.38;;
24721;SDS011;12826;52.368;5.258;2022-09-09T04:07:02;12.77;;;6.10;;
24721;SDS011;12826;52.368;5.258;2022-09-09T04:10:03;7.13;;;4.80;;
24721;SDS011;12826;52.368;5.258;2022-09-09T04:13:04;6.68;;;5.03;;
24721;SDS011;12826;52.368;5.258;2022-09-09T04:19:07;10.90;;;5.63;;
24721;SDS011;12826;52.368;5.258;2022-09-09T04:22:07;7.65;;;5.65;;
24721;SDS011;12826;52.368;5.258;2022-09-09T04:25:14;10.77;;;5.88;;
24721;SDS011;12826;52.368;5.258;2022-09-09T04:28:15;8.20;;;5.40;;
24721;SDS011;12826;52.368;5.258;2022-09-09T04:31:20;7.97;;;6.15;;
24721;SDS011;12826;52.368;5.258;2022-09-09T04:37:31;7.07;;;5.50;;
24721;SDS011;12826;52.368;5.258;2022-09-09T04:40:32;7.40;;;5.50;;
24721;SDS011;12826;52.368;5.258;2022-09-09T04:46:38;9.52;;;5.22;;
24721;SDS011;12826;52.368;5.258;2022-09-09T04:49:38;7.72;;;5.10;;
24721;SDS011;12826;52.368;5.258;2022-09-09T04:55:39;9.15;;;5.30;;
24721;SDS011;12826;52.368;5.258;2022-09-09T04:58:40;10.40;;;5.07;;
24721;SDS011;12826;52.368;5.258;2022-09-09T05:04:46;10.35;;;5.15;;
24721;SDS011;12826;52.368;5.258;2022-09-09T05:07:47;8.23;;;5.53;;
24721;SDS011;12826;52.368;5.258;2022-09-09T05:13:55;8.48;;;5.13;;
24721;SDS011;12826;52.368;5.258;2022-09-09T05:16:56;12.50;;;5.60;;
24721;SDS011;12826;52.368;5.258;2022-09-09T05:20:01;8.52;;;5.28;;
24721;SDS011;12826;52.368;5.258;2022-09-09T05:23:03;7.07;;;5.07;;
24721;SDS011;12826;52.368;5.258;2022-09-09T05:26:04;8.48;;;5.25;;
24721;SDS011;12826;52.368;5.258;2022-09-09T05:29:07;8.68;;;5.22;;
24721;SDS011;12826;52.368;5.258;2022-09-09T05:35:18;7.10;;;5.03;;
24721;SDS011;12826;52.368;5.258;2022-09-09T05:41:21;7.07;;;4.88;;
24721;SDS011;12826;52.368;5.258;2022-09-09T05:44:31;10.57;;;4.75;;
24721;SDS011;12826;52.368;5.258;2022-09-09T05:47:32;8.73;;;5.07;;
24721;SDS011;12826;52.368;5.258;2022-09-09T05:50:32;9.52;;;5.38;;
24721;SDS011;12826;52.368;5.258;2022-09-09T05:56:52;8.90;;;5.15;;
24721;SDS011;12826;52.368;5.258;2022-09-09T05:59:53;13.20;;;4.63;;
24721;SDS011;12826;52.368;5.258;2022-09-09T06:06:00;10.38;;;5.10;;
24721;SDS011;12826;52.368;5.258;2022-09-09T06:09:01;10.27;;;4.35;;
24721;SDS011;12826;52.368;5.258;2022-09-09T06:12:02;9.80;;;5.22;;
24721;SDS011;12826;52.368;5.258;2022-09-09T06:15:02;9.15;;;4.80;;
24721;SDS011;12826;52.368;5.258;2022-09-09T06:18:03;12.43;;;4.65;;
24721;SDS011;12826;52.368;5.258;2022-09-09T06:21:05;7.75;;;4.32;;
24721;SDS011;12826;52.368;5.258;2022-09-09T06:24:07;10.68;;;4.68;;
24721;SDS011;12826;52.368;5.258;2022-09-09T06:27:08;7.32;;;4.32;;
24721;SDS011;12826;52.368;5.258;2022-09-09T06:30:08;7.25;;;4.15;;
24721;SDS011;12826;52.368;5.258;2022-09-09T06:33:09;11.40;;;4.13;;
24721;SDS011;12826;52.368;5.258;2022-09-09T06:36:14;10.13;;;3.60;;
24721;SDS011;12826;52.368;5.258;2022-09-09T06:39:16;6.88;;;3.60;;
24721;SDS011;12826;52.368;5.258;2022-09-09T06:42:16;10.68;;;3.92;;
24721;SDS011;12826;52.368;5.258;2022-09-09T06:45:17;7.68;;;3.92;;
24721;SDS011;12826;52.368;5.258;2022-09-09T06:48:17;7.25;;;4.15;;
24721;SDS011;12826;52.368;5.258;2022-09-09T06:51:21;10.55;;;4.15;;
24721;SDS011;12826;52.368;5.258;2022-09-09T06:54:22;10.05;;;4.13;;
24721;SDS011;12826;52.368;5.258;2022-09-09T06:57:25;10.43;;;4.20;;
24721;SDS011;12826;52.368;5.258;2022-09-09T07:00:25;7.63;;;3.28;;
24721;SDS011;12826;52.368;5.258;2022-09-09T07:03:25;6.68;;;3.28;;
24721;SDS011;12826;52.368;5.258;2022-09-09T07:06:26;7.82;;;3.47;;
24721;SDS011;12826;52.368;5.258;2022-09-09T07:09:27;6.55;;;3.10;;
24721;SDS011;12826;52.368;5.258;2022-09-09T07:12:29;8.70;;;2.97;;
24721;SDS011;12826;52.368;5.258;2022-09-09T07:15:32;8.40;;;2.97;;
24721;SDS011;12826;52.368;5.258;2022-09-09T07:18:34;10.50;;;3.03;;
24721;SDS011;12826;52.368;5.258;2022-09-09T07:21:37;7.65;;;2.70;;
24721;SDS011;12826;52.368;5.258;2022-09-09T07:24:39;13.75;;;3.90;;
24721;SDS011;12826;52.368;5.258;2022-09-09T07:27:42;13.20;;;6.55;;
24721;SDS011;12826;52.368;5.258;2022-09-09T07:30:55;10.85;;;2.90;;
24721;SDS011;12826;52.368;5.258;2022-09-09T07:34:01;8.07;;;2.70;;
24721;SDS011;12826;52.368;5.258;2022-09-09T07:37:07;10.63;;;2.70;;
24721;SDS011;12826;52.368;5.258;2022-09-09T07:43:17;8.75;;;2.63;;
24721;SDS011;12826;52.368;5.258;2022-09-09T07:46:19;8.35;;;3.30;;
24721;SDS011;12826;52.368;5.258;2022-09-09T07:49:20;6.57;;;2.28;;
24721;SDS011;12826;52.368;5.258;2022-09-09T07:52:25;8.18;;;3.08;;
24721;SDS011;12826;52.368;5.258;2022-09-09T07:55:38;7.22;;;2.97;;
24721;SDS011;12826;52.368;5.258;2022-09-09T08:02:35;11.10;;;3.13;;
24721;SDS011;12826;52.368;5.258;2022-09-09T08:05:40;13.73;;;4.53;;
24721;SDS011;12826;52.368;5.258;2022-09-09T08:09:03;10.65;;;3.33;;
24721;SDS011;12826;52.368;5.258;2022-09-09T08:15:28;10.88;;;3.33;;
24721;SDS011;12826;52.368;5.258;2022-09-09T08:18:33;9.90;;;3.50;;
24721;SDS011;12826;52.368;5.258;2022-09-09T08:21:35;8.75;;;3.75;;
24721;SDS011;12826;52.368;5.258;2022-09-09T08:24:36;9.48;;;3.17;;
24721;SDS011;12826;52.368;5.258;2022-09-09T08:27:37;10.50;;;3.25;;
24721;SDS011;12826;52.368;5.258;2022-09-09T08:30:37;7.10;;;2.80;;
24721;SDS011;12826;52.368;5.258;2022-09-09T08:33:38;8.75;;;2.70;;
24721;SDS011;12826;52.368;5.258;2022-09-09T08:36:45;6.90;;;2.90;;
24721;SDS011;12826;52.368;5.258;2022-09-09T08:39:48;7.93;;;2.50;;
24721;SDS011;12826;52.368;5.258;2022-09-09T08:42:50;6.10;;;2.80;;
24721;SDS011;12826;52.368;5.258;2022-09-09T08:45:58;14.23;;;3.10;;
24721;SDS011;12826;52.368;5.258;2022-09-09T08:49:15;9.55;;;2.60;;
24721;SDS011;12826;52.368;5.258;2022-09-09T08:52:27;9.65;;;2.45;;
24721;SDS011;12826;52.368;5.258;2022-09-09T08:58:45;7.63;;;2.40;;
24721;SDS011;12826;52.368;5.258;2022-09-09T09:05:09;9.80;;;2.35;;
24721;SDS011;12826;52.368;5.258;2022-09-09T09:08:26;9.32;;;2.05;;
24721;SDS011;12826;52.368;5.258;2022-09-09T09:11:35;8.95;;;2.22;;
24721;SDS011;12826;52.368;5.258;2022-09-09T09:14:39;5.45;;;2.00;;
24721;SDS011;12826;52.368;5.258;2022-09-09T09:17:40;8.60;;;2.25;;
24721;SDS011;12826;52.368;5.258;2022-09-09T09:20:47;5.78;;;2.00;;
24721;SDS011;12826;52.368;5.258;2022-09-09T09:23:56;6.90;;;2.20;;
24721;SDS011;12826;52.368;5.258;2022-09-09T09:26:59;8.27;;;2.35;;
24721;SDS011;12826;52.368;5.258;2022-09-09T09:30:14;13.75;;;2.42;;
24721;SDS011;12826;52.368;5.258;2022-09-09T09:36:51;11.15;;;2.40;;
24721;SDS011;12826;52.368;5.258;2022-09-09T09:39:53;6.25;;;2.40;;
24721;SDS011;12826;52.368;5.258;2022-09-09T09:42:54;12.98;;;2.47;;
24721;SDS011;12826;52.368;5.258;2022-09-09T09:46:04;12.40;;;2.50;;
24721;SDS011;12826;52.368;5.258;2022-09-09T09:49:05;15.40;;;2.45;;
24721;SDS011;12826;52.368;5.258;2022-09-09T09:52:12;11.38;;;2.30;;
24721;SDS011;12826;52.368;5.258;2022-09-09T09:55:19;9.38;;;2.40;;
24721;SDS011;12826;52.368;5.258;2022-09-09T09:58:20;9.93;;;2.30;;
24721;SDS011;12826;52.368;5.258;2022-09-09T10:01:39;7.40;;;2.20;;
24721;SDS011;12826;52.368;5.258;2022-09-09T10:04:39;6.45;;;2.05;;
24721;SDS011;12826;52.368;5.258;2022-09-09T10:07:41;7.57;;;2.22;;
24721;SDS011;12826;52.368;5.258;2022-09-09T10:14:18;9.50;;;2.13;;
24721;SDS011;12826;52.368;5.258;2022-09-09T10:24:27;9.52;;;2.17;;
24721;SDS011;12826;52.368;5.258;2022-09-09T10:27:39;7.55;;;2.20;;
24721;SDS011;12826;52.368;5.258;2022-09-09T10:30:56;7.07;;;1.77;;
24721;SDS011;12826;52.368;5.258;2022-09-09T10:37:38;11.48;;;2.47;;
24721;SDS011;12826;52.368;5.258;2022-09-09T10:47:23;11.27;;;2.53;;
24721;SDS011;12826;52.368;5.258;2022-09-09T10:50:55;9.90;;;2.45;;
24721;SDS011;12826;52.368;5.258;2022-09-09T10:54:07;8.80;;;2.42;;
24721;SDS011;12826;52.368;5.258;2022-09-09T10:57:36;15.18;;;2.00;;
24721;SDS011;12826;52.368;5.258;2022-09-09T11:00:42;7.50;;;2.40;;
24721;SDS011;12826;52.368;5.258;2022-09-09T11:03:47;13.55;;;2.80;;
24721;SDS011;12826;52.368;5.258;2022-09-09T11:06:54;9.30;;;2.13;;
24721;SDS011;12826;52.368;5.258;2022-09-09T11:09:58;5.90;;;2.22;;
24721;SDS011;12826;52.368;5.258;2022-09-09T11:13:02;5.80;;;2.03;;
24721;SDS011;12826;52.368;5.258;2022-09-09T11:16:08;7.55;;;2.25;;
24721;SDS011;12826;52.368;5.258;2022-09-09T11:25:32;8.05;;;2.17;;
24721;SDS011;12826;52.368;5.258;2022-09-09T11:28:54;5.72;;;1.38;;
24721;SDS011;12826;52.368;5.258;2022-09-09T11:38:32;5.00;;;1.70;;
24721;SDS011;12826;52.368;5.258;2022-09-09T11:44:41;61.92;;;7.72;;
24721;SDS011;12826;52.368;5.258;2022-09-09T11:47:50;5.15;;;1.70;;
24721;SDS011;12826;52.368;5.258;2022-09-09T11:51:00;8.73;;;2.17;;
24721;SDS011;12826;52.368;5.258;2022-09-09T11:57:32;10.13;;;2.08;;
24721;SDS011;12826;52.368;5.258;2022-09-09T12:00:37;6.00;;;1.95;;
24721;SDS011;12826;52.368;5.258;2022-09-09T12:03:45;5.97;;;1.98;;
24721;SDS011;12826;52.368;5.258;2022-09-09T12:13:21;6.22;;;1.83;;
24721;SDS011;12826;52.368;5.258;2022-09-09T12:16:27;5.78;;;1.77;;
24721;SDS011;12826;52.368;5.258;2022-09-09T12:19:34;10.90;;;2.20;;
24721;SDS011;12826;52.368;5.258;2022-09-09T12:22:40;6.53;;;1.80;;
24721;SDS011;12826;52.368;5.258;2022-09-09T12:29:18;4.10;;;1.38;;
24721;SDS011;12826;52.368;5.258;2022-09-09T12:32:22;57.13;;;4.60;;
24721;SDS011;12826;52.368;5.258;2022-09-09T12:35:27;13.57;;;2.22;;
24721;SDS011;12826;52.368;5.258;2022-09-09T12:38:32;6.30;;;2.15;;
24721;SDS011;12826;52.368;5.258;2022-09-09T12:41:35;29.60;;;4.13;;
24721;SDS011;12826;52.368;5.258;2022-09-09T12:44:36;17.25;;;2.50;;
24721;SDS011;12826;52.368;5.258;2022-09-09T12:47:40;7.70;;;1.70;;
24721;SDS011;12826;52.368;5.258;2022-09-09T12:50:49;3.35;;;1.58;;
24721;SDS011;12826;52.368;5.258;2022-09-09T12:53:51;9.38;;;1.88;;
24721;SDS011;12826;52.368;5.258;2022-09-09T12:56:52;3.65;;;1.92;;
24721;SDS011;12826;52.368;5.258;2022-09-09T12:59:52;4.65;;;2.05;;
24721;SDS011;12826;52.368;5.258;2022-09-09T13:02:54;4.65;;;1.83;;
24721;SDS011;12826;52.368;5.258;2022-09-09T13:05:57;7.57;;;2.00;;
24721;SDS011;12826;52.368;5.258;2022-09-09T13:09:02;5.78;;;1.95;;
24721;SDS011;12826;52.368;5.258;2022-09-09T13:12:03;3.63;;;2.20;;
24721;SDS011;12826;52.368;5.258;2022-09-09T13:15:09;5.85;;;2.05;;
24721;SDS011;12826;52.368;5.258;2022-09-09T13:18:24;4.70;;;2.20;;
24721;SDS011;12826;52.368;5.258;2022-09-09T13:21:33;5.50;;;2.05;;
24721;SDS011;12826;52.368;5.258;2022-09-09T13:24:34;8.02;;;2.13;;
24721;SDS011;12826;52.368;5.258;2022-09-09T13:27:38;7.10;;;2.28;;
24721;SDS011;12826;52.368;5.258;2022-09-09T13:30:39;5.93;;;2.30;;
24721;SDS011;12826;52.368;5.258;2022-09-09T13:33:40;6.93;;;2.55;;
24721;SDS011;12826;52.368;5.258;2022-09-09T13:36:41;30.60;;;3.67;;
24721;SDS011;12826;52.368;5.258;2022-09-09T13:39:50;10.88;;;3.03;;
24721;SDS011;12826;52.368;5.258;2022-09-09T13:42:55;6.90;;;2.78;;
24721;SDS011;12826;52.368;5.258;2022-09-09T13:45:57;7.70;;;2.50;;
24721;SDS011;12826;52.368;5.258;2022-09-09T13:52:15;6.13;;;2.63;;
24721;SDS011;12826;52.368;5.258;2022-09-09T13:55:17;5.30;;;2.60;;
24721;SDS011;12826;52.368;5.258;2022-09-09T13:58:21;7.95;;;2.80;;
24721;SDS011;12826;52.368;5.258;2022-09-09T14:01:22;4.38;;;2.67;;
24721;SDS011;12826;52.368;5.258;2022-09-09T14:04:23;6.15;;;2.88;;
24721;SDS011;12826;52.368;5.258;2022-09-09T14:07:23;6.75;;;2.90;;
24721;SDS011;12826;52.368;5.258;2022-09-09T14:10:25;4.90;;;2.42;;
24721;SDS011;12826;52.368;5.258;2022-09-09T14:13:25;6.20;;;2.67;;
24721;SDS011;12826;52.368;5.258;2022-09-09T14:16:25;6.68;;;2.72;;
24721;SDS011;12826;52.368;5.258;2022-09-09T14:19:27;29.65;;;3.85;;
24721;SDS011;12826;52.368;5.258;2022-09-09T14:22:28;6.70;;;2.88;;
24721;SDS011;12826;52.368;5.258;2022-09-09T14:25:31;8.27;;;3.33;;
24721;SDS011;12826;52.368;5.258;2022-09-09T14:28:35;15.23;;;3.22;;
24721;SDS011;12826;52.368;5.258;2022-09-09T14:31:44;17.30;;;2.63;;
24721;SDS011;12826;52.368;5.258;2022-09-09T14:34:44;7.43;;;2.60;;
24721;SDS011;12826;52.368;5.258;2022-09-09T14:37:44;4.95;;;2.00;;
24721;SDS011;12826;52.368;5.258;2022-09-09T14:40:46;5.03;;;2.20;;
24721;SDS011;12826;52.368;5.258;2022-09-09T14:43:46;4.63;;;2.03;;
24721;SDS011;12826;52.368;5.258;2022-09-09T14:46:47;8.90;;;2.42;;
24721;SDS011;12826;52.368;5.258;2022-09-09T14:49:50;3.60;;;2.00;;
24721;SDS011;12826;52.368;5.258;2022-09-09T14:52:53;3.53;;;1.92;;
24721;SDS011;12826;52.368;5.258;2022-09-09T14:55:53;26.63;;;3.15;;
24721;SDS011;12826;52.368;5.258;2022-09-09T14:59:03;16.77;;;3.10;;
24721;SDS011;12826;52.368;5.258;2022-09-09T15:02:04;10.07;;;2.33;;
24721;SDS011;12826;52.368;5.258;2022-09-09T15:05:05;9.32;;;2.45;;
24721;SDS011;12826;52.368;5.258;2022-09-09T15:08:05;8.68;;;2.45;;
24721;SDS011;12826;52.368;5.258;2022-09-09T15:11:06;6.47;;;2.40;;
24721;SDS011;12826;52.368;5.258;2022-09-09T15:14:11;11.68;;;3.20;;
24721;SDS011;12826;52.368;5.258;2022-09-09T15:17:12;11.00;;;2.72;;
24721;SDS011;12826;52.368;5.258;2022-09-09T15:20:13;6.70;;;2.15;;
24721;SDS011;12826;52.368;5.258;2022-09-09T15:23:13;5.63;;;2.28;;
24721;SDS011;12826;52.368;5.258;2022-09-09T15:26:14;4.32;;;1.95;;
24721;SDS011;12826;52.368;5.258;2022-09-09T15:29:15;4.22;;;2.20;;
24721;SDS011;12826;52.368;5.258;2022-09-09T15:32:15;5.85;;;1.77;;
24721;SDS011;12826;52.368;5.258;2022-09-09T15:38:23;3.95;;;2.15;;
24721;SDS011;12826;52.368;5.258;2022-09-09T15:41:24;4.80;;;2.13;;
24721;SDS011;12826;52.368;5.258;2022-09-09T15:44:25;4.35;;;1.70;;
24721;SDS011;12826;52.368;5.258;2022-09-09T15:47:29;1.67;;;0.70;;
24721;SDS011;12826;52.368;5.258;2022-09-09T15:50:29;2.92;;;0.77;;
24721;SDS011;12826;52.368;5.258;2022-09-09T15:53:32;2.35;;;0.93;;
24721;SDS011;12826;52.368;5.258;2022-09-09T15:56:33;0.80;;;0.50;;
24721;SDS011;12826;52.368;5.258;2022-09-09T15:59:34;1.85;;;0.82;;
24721;SDS011;12826;52.368;5.258;2022-09-09T16:02:37;1.73;;;0.70;;
24721;SDS011;12826;52.368;5.258;2022-09-09T16:05:37;3.03;;;0.80;;
24721;SDS011;12826;52.368;5.258;2022-09-09T16:08:39;3.55;;;0.88;;
24721;SDS011;12826;52.368;5.258;2022-09-09T16:11:41;2.85;;;1.00;;
24721;SDS011;12826;52.368;5.258;2022-09-09T16:14:42;2.83;;;1.20;;
24721;SDS011;12826;52.368;5.258;2022-09-09T16:17:43;4.85;;;1.50;;
24721;SDS011;12826;52.368;5.258;2022-09-09T16:23:50;2.05;;;1.00;;
24721;SDS011;12826;52.368;5.258;2022-09-09T16:26:52;3.85;;;1.30;;
24721;SDS011;12826;52.368;5.258;2022-09-09T16:29:54;21.88;;;3.47;;
24721;SDS011;12826;52.368;5.258;2022-09-09T16:32:56;31.15;;;3.88;;
24721;SDS011;12826;52.368;5.258;2022-09-09T16:35:57;4.30;;;1.30;;
24721;SDS011;12826;52.368;5.258;2022-09-09T16:42:05;1.35;;;1.20;;
24721;SDS011;12826;52.368;5.258;2022-09-09T16:45:06;4.00;;;1.60;;
24721;SDS011;12826;52.368;5.258;2022-09-09T16:51:14;34.72;;;5.15;;
24721;SDS011;12826;52.368;5.258;2022-09-09T16:54:15;10.95;;;4.15;;
24721;SDS011;12826;52.368;5.258;2022-09-09T16:57:19;41.38;;;6.18;;
24721;SDS011;12826;52.368;5.258;2022-09-09T17:00:19;40.63;;;5.20;;
24721;SDS011;12826;52.368;5.258;2022-09-09T17:03:23;7.18;;;1.95;;
24721;SDS011;12826;52.368;5.258;2022-09-09T17:09:27;33.67;;;4.72;;
24721;SDS011;12826;52.368;5.258;2022-09-09T17:12:29;5.40;;;2.42;;
24721;SDS011;12826;52.368;5.258;2022-09-09T17:15:29;22.38;;;4.15;;
24721;SDS011;12826;52.368;5.258;2022-09-09T17:18:30;9.75;;;2.25;;
24721;SDS011;12826;52.368;5.258;2022-09-09T17:21:33;5.13;;;1.75;;
24721;SDS011;12826;52.368;5.258;2022-09-09T17:24:46;6.55;;;2.33;;
24721;SDS011;12826;52.368;5.258;2022-09-09T17:27:54;5.63;;;2.10;;
24721;SDS011;12826;52.368;5.258;2022-09-09T17:34:11;8.25;;;2.20;;
24721;SDS011;12826;52.368;5.258;2022-09-09T17:37:12;4.68;;;2.38;;
24721;SDS011;12826;52.368;5.258;2022-09-09T17:40:23;62.17;;;8.38;;
24721;SDS011;12826;52.368;5.258;2022-09-09T17:43:53;6.05;;;2.13;;
24721;SDS011;12826;52.368;5.258;2022-09-09T17:57:22;6.75;;;2.63;;
24721;SDS011;12826;52.368;5.258;2022-09-09T18:00:25;4.95;;;2.40;;
24721;SDS011;12826;52.368;5.258;2022-09-09T18:03:25;5.28;;;2.45;;
24721;SDS011;12826;52.368;5.258;2022-09-09T18:06:33;16.50;;;3.50;;
24721;SDS011;12826;52.368;5.258;2022-09-09T18:09:37;6.30;;;2.75;;
24721;SDS011;12826;52.368;5.258;2022-09-09T18:12:38;6.20;;;3.47;;
24721;SDS011;12826;52.368;5.258;2022-09-09T18:18:42;9.30;;;3.88;;
24721;SDS011;12826;52.368;5.258;2022-09-09T18:21:49;9.55;;;3.88;;
24721;SDS011;12826;52.368;5.258;2022-09-09T18:24:53;15.35;;;5.95;;
24721;SDS011;12826;52.368;5.258;2022-09-09T18:27:54;9.85;;;4.28;;
24721;SDS011;12826;52.368;5.258;2022-09-09T18:30:57;9.93;;;4.63;;
24721;SDS011;12826;52.368;5.258;2022-09-09T18:34:11;8.90;;;4.93;;
24721;SDS011;12826;52.368;5.258;2022-09-09T18:37:12;9.52;;;4.68;;
24721;SDS011;12826;52.368;5.258;2022-09-09T18:43:23;12.65;;;5.55;;
24721;SDS011;12826;52.368;5.258;2022-09-09T18:46:25;8.68;;;4.80;;
24721;SDS011;12826;52.368;5.258;2022-09-09T18:52:32;8.23;;;5.20;;
24721;SDS011;12826;52.368;5.258;2022-09-09T18:55:35;10.30;;;5.50;;
24721;SDS011;12826;52.368;5.258;2022-09-09T19:01:37;23.17;;;8.07;;
24721;SDS011;12826;52.368;5.258;2022-09-09T19:04:41;9.63;;;5.70;;
24721;SDS011;12826;52.368;5.258;2022-09-09T19:07:48;32.03;;;9.00;;
24721;SDS011;12826;52.368;5.258;2022-09-09T19:11:00;27.20;;;7.35;;
24721;SDS011;12826;52.368;5.258;2022-09-09T19:14:02;10.55;;;5.43;;
24721;SDS011;12826;52.368;5.258;2022-09-09T19:17:25;11.68;;;5.90;;
24721;SDS011;12826;52.368;5.258;2022-09-09T19:20:30;9.15;;;5.22;;
24721;SDS011;12826;52.368;5.258;2022-09-09T19:23:34;21.13;;;7.65;;
24721;SDS011;12826;52.368;5.258;2022-09-09T19:26:40;10.25;;;5.88;;
24721;SDS011;12826;52.368;5.258;2022-09-09T19:29:51;11.82;;;6.07;;
24721;SDS011;12826;52.368;5.258;2022-09-09T19:39:47;63.70;;;12.27;;
24721;SDS011;12826;52.368;5.258;2022-09-09T19:42:54;10.82;;;5.20;;
24721;SDS011;12826;52.368;5.258;2022-09-09T19:46:07;35.00;;;8.10;;
24721;SDS011;12826;52.368;5.258;2022-09-09T19:49:13;9.53;;;5.17;;
24721;SDS011;12826;52.368;5.258;2022-09-09T19:55:27;9.80;;;5.28;;
24721;SDS011;12826;52.368;5.258;2022-09-09T20:01:43;23.75;;;7.35;;
24721;SDS011;12826;52.368;5.258;2022-09-09T20:04:46;8.30;;;5.55;;
24721;SDS011;12826;52.368;5.258;2022-09-09T20:10:55;9.07;;;5.38;;
24721;SDS011;12826;52.368;5.258;2022-09-09T20:13:56;11.50;;;5.15;;
24721;SDS011;12826;52.368;5.258;2022-09-09T20:17:00;14.30;;;5.78;;
24721;SDS011;12826;52.368;5.258;2022-09-09T20:20:00;9.75;;;5.13;;
24721;SDS011;12826;52.368;5.258;2022-09-09T20:23:03;11.98;;;5.22;;
24721;SDS011;12826;52.368;5.258;2022-09-09T20:26:15;22.23;;;7.60;;
24721;SDS011;12826;52.368;5.258;2022-09-09T20:29:24;9.70;;;4.97;;
24721;SDS011;12826;52.368;5.258;2022-09-09T20:35:42;9.02;;;5.10;;
24721;SDS011;12826;52.368;5.258;2022-09-09T20:38:50;8.60;;;5.40;;
24721;SDS011;12826;52.368;5.258;2022-09-09T20:44:54;9.73;;;5.47;;
24721;SDS011;12826;52.368;5.258;2022-09-09T20:47:57;11.35;;;5.22;;
24721;SDS011;12826;52.368;5.258;2022-09-09T20:51:04;12.30;;;5.80;;
24721;SDS011;12826;52.368;5.258;2022-09-09T20:54:11;9.82;;;5.15;;
24721;SDS011;12826;52.368;5.258;2022-09-09T20:57:16;8.25;;;4.70;;
24721;SDS011;12826;52.368;5.258;2022-09-09T21:00:21;11.48;;;5.60;;
24721;SDS011;12826;52.368;5.258;2022-09-09T21:03:21;9.02;;;5.25;;
24721;SDS011;12826;52.368;5.258;2022-09-09T21:06:28;10.05;;;5.25;;
24721;SDS011;12826;52.368;5.258;2022-09-09T21:09:28;9.82;;;5.85;;
24721;SDS011;12826;52.368;5.258;2022-09-09T21:12:29;10.75;;;6.07;;
24721;SDS011;12826;52.368;5.258;2022-09-09T21:15:37;11.93;;;5.88;;
24721;SDS011;12826;52.368;5.258;2022-09-09T21:18:54;13.68;;;6.20;;
24721;SDS011;12826;52.368;5.258;2022-09-09T21:21:58;10.90;;;5.82;;
24721;SDS011;12826;52.368;5.258;2022-09-09T21:24:59;9.70;;;7.00;;
24721;SDS011;12826;52.368;5.258;2022-09-09T21:27:59;10.13;;;5.95;;
24721;SDS011;12826;52.368;5.258;2022-09-09T21:31:00;8.57;;;5.80;;
24721;SDS011;12826;52.368;5.258;2022-09-09T21:34:04;10.63;;;5.32;;
24721;SDS011;12826;52.368;5.258;2022-09-09T21:37:12;12.13;;;6.38;;
24721;SDS011;12826;52.368;5.258;2022-09-09T21:40:13;16.20;;;6.10;;
24721;SDS011;12826;52.368;5.258;2022-09-09T21:43:13;10.20;;;5.90;;
24721;SDS011;12826;52.368;5.258;2022-09-09T21:46:15;9.57;;;5.57;;
24721;SDS011;12826;52.368;5.258;2022-09-09T21:49:16;10.88;;;5.88;;
24721;SDS011;12826;52.368;5.258;2022-09-09T21:52:16;9.35;;;5.40;;
24721;SDS011;12826;52.368;5.258;2022-09-09T21:55:17;10.93;;;6.18;;
24721;SDS011;12826;52.368;5.258;2022-09-09T21:58:20;9.82;;;5.55;;
24721;SDS011;12826;52.368;5.258;2022-09-09T22:01:21;21.30;;;7.25;;
24721;SDS011;12826;52.368;5.258;2022-09-09T22:04:23;11.10;;;6.07;;
24721;SDS011;12826;52.368;5.258;2022-09-09T22:07:24;15.27;;;6.47;;